sensor_id;sensor_type;location;lat;lon;timestamp;P1;durP1;ratioP1;P2;durP2;ratioP2
10605;SDS011;5350;42.698;23.148;2023-04-24T00:01:39;10.07;;;7.40;;
10605;SDS011;5350;42.698;23.148;2023-04-24T00:04:07;13.67;;;6.97;;
10605;SDS011;5350;42.698;23.148;2023-04-24T00:06:36;8.93;;;7.03;;
10605;SDS011;5350;42.698;23.148;2023-04-24T00:09:03;9.63;;;7.40;;
10605;SDS011;5350;42.698;23.148;2023-04-24T00:11:30;8.33;;;7.47;;
10605;SDS011;5350;42.698;23.148;2023-04-24T00:13:57;9.70;;;7.57;;
10605;SDS011;5350;42.698;23.148;2023-04-24T00:16:25;8.83;;;7.43;;
10605;SDS011;5350;42.698;23.148;2023-04-24T00:18:53;10.87;;;7.37;;
10605;SDS011;5350;42.698;23.148;2023-04-24T00:21:19;8.63;;;7.03;;
10605;SDS011;5350;42.698;23.148;2023-04-24T00:23:46;9.00;;;6.43;;
10605;SDS011;5350;42.698;23.148;2023-04-24T00:26:13;9.60;;;7.20;;
10605;SDS011;5350;42.698;23.148;2023-04-24T00:28:40;9.73;;;6.73;;
10605;SDS011;5350;42.698;23.148;2023-04-24T00:31:07;8.53;;;6.90;;
10605;SDS011;5350;42.698;23.148;2023-04-24T00:33:35;9.77;;;7.13;;
10605;SDS011;5350;42.698;23.148;2023-04-24T00:36:02;7.77;;;6.50;;
10605;SDS011;5350;42.698;23.148;2023-04-24T00:38:29;6.90;;;5.67;;
10605;SDS011;5350;42.698;23.148;2023-04-24T00:40:56;9.37;;;6.10;;
10605;SDS011;5350;42.698;23.148;2023-04-24T00:43:22;7.90;;;6.27;;
10605;SDS011;5350;42.698;23.148;2023-04-24T00:45:49;7.37;;;5.80;;
10605;SDS011;5350;42.698;23.148;2023-04-24T00:48:16;5.63;;;4.73;;
10605;SDS011;5350;42.698;23.148;2023-04-24T00:50:45;9.03;;;6.70;;
10605;SDS011;5350;42.698;23.148;2023-04-24T00:53:12;8.23;;;6.77;;
10605;SDS011;5350;42.698;23.148;2023-04-24T00:55:38;5.80;;;5.17;;
10605;SDS011;5350;42.698;23.148;2023-04-24T00:58:05;5.17;;;4.40;;
10605;SDS011;5350;42.698;23.148;2023-04-24T01:00:32;4.90;;;4.40;;
10605;SDS011;5350;42.698;23.148;2023-04-24T01:02:59;5.13;;;3.80;;
10605;SDS011;5350;42.698;23.148;2023-04-24T01:05:28;3.87;;;3.17;;
10605;SDS011;5350;42.698;23.148;2023-04-24T01:07:56;4.50;;;4.10;;
10605;SDS011;5350;42.698;23.148;2023-04-24T01:10:25;6.20;;;4.90;;
10605;SDS011;5350;42.698;23.148;2023-04-24T01:12:53;5.13;;;4.37;;
10605;SDS011;5350;42.698;23.148;2023-04-24T01:15:20;4.57;;;4.17;;
10605;SDS011;5350;42.698;23.148;2023-04-24T01:17:47;6.83;;;4.53;;
10605;SDS011;5350;42.698;23.148;2023-04-24T01:20:13;6.27;;;4.57;;
10605;SDS011;5350;42.698;23.148;2023-04-24T01:22:42;5.77;;;4.80;;
10605;SDS011;5350;42.698;23.148;2023-04-24T01:25:09;7.37;;;4.57;;
10605;SDS011;5350;42.698;23.148;2023-04-24T01:27:35;4.43;;;4.03;;
10605;SDS011;5350;42.698;23.148;2023-04-24T01:30:02;7.13;;;4.70;;
10605;SDS011;5350;42.698;23.148;2023-04-24T01:32:30;5.73;;;5.23;;
10605;SDS011;5350;42.698;23.148;2023-04-24T01:34:57;10.03;;;5.63;;
10605;SDS011;5350;42.698;23.148;2023-04-24T01:37:24;6.63;;;5.70;;
10605;SDS011;5350;42.698;23.148;2023-04-24T01:39:53;6.07;;;5.47;;
10605;SDS011;5350;42.698;23.148;2023-04-24T01:42:20;8.50;;;5.77;;
10605;SDS011;5350;42.698;23.148;2023-04-24T01:44:46;8.57;;;6.30;;
10605;SDS011;5350;42.698;23.148;2023-04-24T01:47:13;6.87;;;5.90;;
10605;SDS011;5350;42.698;23.148;2023-04-24T01:49:40;8.00;;;5.93;;
10605;SDS011;5350;42.698;23.148;2023-04-24T01:52:07;6.47;;;5.80;;
10605;SDS011;5350;42.698;23.148;2023-04-24T01:54:33;7.03;;;5.60;;
10605;SDS011;5350;42.698;23.148;2023-04-24T01:57:01;6.70;;;6.00;;
10605;SDS011;5350;42.698;23.148;2023-04-24T01:59:28;7.20;;;5.93;;
10605;SDS011;5350;42.698;23.148;2023-04-24T02:01:56;6.47;;;5.60;;
10605;SDS011;5350;42.698;23.148;2023-04-24T02:04:23;7.43;;;5.87;;
10605;SDS011;5350;42.698;23.148;2023-04-24T02:06:49;7.40;;;5.97;;
10605;SDS011;5350;42.698;23.148;2023-04-24T02:09:16;9.07;;;6.20;;
10605;SDS011;5350;42.698;23.148;2023-04-24T02:11:43;10.70;;;6.00;;
10605;SDS011;5350;42.698;23.148;2023-04-24T02:14:11;10.67;;;6.37;;
10605;SDS011;5350;42.698;23.148;2023-04-24T02:16:37;9.03;;;5.33;;
10605;SDS011;5350;42.698;23.148;2023-04-24T02:19:04;6.00;;;5.30;;
10605;SDS011;5350;42.698;23.148;2023-04-24T02:21:31;7.53;;;5.50;;
10605;SDS011;5350;42.698;23.148;2023-04-24T02:23:58;8.17;;;5.63;;
10605;SDS011;5350;42.698;23.148;2023-04-24T02:26:25;9.80;;;5.97;;
10605;SDS011;5350;42.698;23.148;2023-04-24T02:28:52;9.77;;;6.13;;
10605;SDS011;5350;42.698;23.148;2023-04-24T02:31:20;7.90;;;5.63;;
10605;SDS011;5350;42.698;23.148;2023-04-24T02:33:46;5.77;;;5.13;;
10605;SDS011;5350;42.698;23.148;2023-04-24T02:36:13;5.57;;;4.97;;
10605;SDS011;5350;42.698;23.148;2023-04-24T02:38:40;9.17;;;8.33;;
10605;SDS011;5350;42.698;23.148;2023-04-24T02:41:07;6.43;;;5.83;;
10605;SDS011;5350;42.698;23.148;2023-04-24T02:43:33;9.70;;;6.43;;
10605;SDS011;5350;42.698;23.148;2023-04-24T02:46:00;6.70;;;6.00;;
10605;SDS011;5350;42.698;23.148;2023-04-24T02:48:29;7.90;;;6.83;;
10605;SDS011;5350;42.698;23.148;2023-04-24T02:50:56;10.23;;;6.37;;
10605;SDS011;5350;42.698;23.148;2023-04-24T02:53:23;7.37;;;6.50;;
10605;SDS011;5350;42.698;23.148;2023-04-24T02:55:50;9.50;;;6.93;;
10605;SDS011;5350;42.698;23.148;2023-04-24T02:58:16;8.53;;;6.20;;
10605;SDS011;5350;42.698;23.148;2023-04-24T03:00:45;7.30;;;6.43;;
10605;SDS011;5350;42.698;23.148;2023-04-24T03:03:11;11.60;;;6.20;;
10605;SDS011;5350;42.698;23.148;2023-04-24T03:05:39;10.37;;;6.77;;
10605;SDS011;5350;42.698;23.148;2023-04-24T03:08:06;8.40;;;5.97;;
10605;SDS011;5350;42.698;23.148;2023-04-24T03:10:33;7.07;;;5.97;;
10605;SDS011;5350;42.698;23.148;2023-04-24T03:13:00;8.93;;;6.17;;
10605;SDS011;5350;42.698;23.148;2023-04-24T03:15:26;8.00;;;6.30;;
10605;SDS011;5350;42.698;23.148;2023-04-24T03:17:53;7.50;;;6.23;;
10605;SDS011;5350;42.698;23.148;2023-04-24T03:20:20;11.47;;;8.03;;
10605;SDS011;5350;42.698;23.148;2023-04-24T03:22:48;8.67;;;6.70;;
10605;SDS011;5350;42.698;23.148;2023-04-24T03:25:15;8.90;;;6.23;;
10605;SDS011;5350;42.698;23.148;2023-04-24T03:27:42;9.13;;;6.80;;
10605;SDS011;5350;42.698;23.148;2023-04-24T03:30:08;12.10;;;6.90;;
10605;SDS011;5350;42.698;23.148;2023-04-24T03:32:35;9.57;;;6.60;;
10605;SDS011;5350;42.698;23.148;2023-04-24T03:35:04;7.97;;;6.83;;
10605;SDS011;5350;42.698;23.148;2023-04-24T03:37:32;14.67;;;10.67;;
10605;SDS011;5350;42.698;23.148;2023-04-24T03:40:00;9.10;;;8.07;;
10605;SDS011;5350;42.698;23.148;2023-04-24T03:42:27;15.03;;;10.03;;
10605;SDS011;5350;42.698;23.148;2023-04-24T03:44:53;20.43;;;14.40;;
10605;SDS011;5350;42.698;23.148;2023-04-24T03:47:20;14.87;;;11.83;;
10605;SDS011;5350;42.698;23.148;2023-04-24T03:49:47;9.73;;;7.03;;
10605;SDS011;5350;42.698;23.148;2023-04-24T03:52:13;8.27;;;7.10;;
10605;SDS011;5350;42.698;23.148;2023-04-24T03:54:40;8.27;;;6.60;;
10605;SDS011;5350;42.698;23.148;2023-04-24T03:57:08;13.30;;;6.80;;
10605;SDS011;5350;42.698;23.148;2023-04-24T03:59:35;8.80;;;5.97;;
10605;SDS011;5350;42.698;23.148;2023-04-24T04:02:01;12.40;;;6.20;;
10605;SDS011;5350;42.698;23.148;2023-04-24T04:04:28;7.00;;;5.70;;
10605;SDS011;5350;42.698;23.148;2023-04-24T04:06:55;8.40;;;6.17;;
10605;SDS011;5350;42.698;23.148;2023-04-24T04:09:21;6.23;;;5.40;;
10605;SDS011;5350;42.698;23.148;2023-04-24T04:11:48;10.20;;;6.17;;
10605;SDS011;5350;42.698;23.148;2023-04-24T04:14:16;6.77;;;6.07;;
10605;SDS011;5350;42.698;23.148;2023-04-24T04:16:43;9.40;;;6.20;;
10605;SDS011;5350;42.698;23.148;2023-04-24T04:19:09;8.37;;;6.07;;
10605;SDS011;5350;42.698;23.148;2023-04-24T04:21:36;8.70;;;6.17;;
10605;SDS011;5350;42.698;23.148;2023-04-24T04:24:03;7.30;;;6.17;;
10605;SDS011;5350;42.698;23.148;2023-04-24T04:26:30;8.67;;;6.77;;
10605;SDS011;5350;42.698;23.148;2023-04-24T04:28:57;8.33;;;6.30;;
10605;SDS011;5350;42.698;23.148;2023-04-24T04:31:27;9.73;;;6.10;;
10605;SDS011;5350;42.698;23.148;2023-04-24T04:33:53;7.83;;;6.20;;
10605;SDS011;5350;42.698;23.148;2023-04-24T04:36:20;10.07;;;6.40;;
10605;SDS011;5350;42.698;23.148;2023-04-24T04:38:47;10.63;;;6.23;;
10605;SDS011;5350;42.698;23.148;2023-04-24T04:41:13;7.70;;;6.03;;
10605;SDS011;5350;42.698;23.148;2023-04-24T04:43:41;7.53;;;5.70;;
10605;SDS011;5350;42.698;23.148;2023-04-24T04:46:08;9.53;;;6.17;;
10605;SDS011;5350;42.698;23.148;2023-04-24T04:48:37;9.47;;;5.47;;
10605;SDS011;5350;42.698;23.148;2023-04-24T04:51:04;6.83;;;5.50;;
10605;SDS011;5350;42.698;23.148;2023-04-24T04:53:31;6.83;;;5.80;;
10605;SDS011;5350;42.698;23.148;2023-04-24T04:55:58;8.87;;;6.80;;
10605;SDS011;5350;42.698;23.148;2023-04-24T04:58:25;8.17;;;7.20;;
10605;SDS011;5350;42.698;23.148;2023-04-24T05:00:52;11.97;;;8.23;;
10605;SDS011;5350;42.698;23.148;2023-04-24T05:03:19;10.00;;;7.87;;
10605;SDS011;5350;42.698;23.148;2023-04-24T05:05:47;10.30;;;7.23;;
10605;SDS011;5350;42.698;23.148;2023-04-24T05:08:14;9.87;;;6.60;;
10605;SDS011;5350;42.698;23.148;2023-04-24T05:10:40;8.90;;;5.63;;
10605;SDS011;5350;42.698;23.148;2023-04-24T05:13:07;9.20;;;5.83;;
10605;SDS011;5350;42.698;23.148;2023-04-24T05:15:34;8.97;;;5.67;;
10605;SDS011;5350;42.698;23.148;2023-04-24T05:18:01;8.93;;;5.50;;
10605;SDS011;5350;42.698;23.148;2023-04-24T05:20:28;6.33;;;5.27;;
10605;SDS011;5350;42.698;23.148;2023-04-24T05:22:56;9.67;;;6.97;;
10605;SDS011;5350;42.698;23.148;2023-04-24T05:25:22;8.60;;;5.50;;
10605;SDS011;5350;42.698;23.148;2023-04-24T05:27:49;7.40;;;5.50;;
10605;SDS011;5350;42.698;23.148;2023-04-24T05:30:16;6.47;;;5.50;;
10605;SDS011;5350;42.698;23.148;2023-04-24T05:32:42;12.70;;;5.53;;
10605;SDS011;5350;42.698;23.148;2023-04-24T05:35:09;8.57;;;5.00;;
10605;SDS011;5350;42.698;23.148;2023-04-24T05:37:36;11.20;;;6.27;;
10605;SDS011;5350;42.698;23.148;2023-04-24T05:40:05;6.63;;;5.53;;
10605;SDS011;5350;42.698;23.148;2023-04-24T05:42:33;6.73;;;5.53;;
10605;SDS011;5350;42.698;23.148;2023-04-24T05:45:00;9.00;;;6.07;;
10605;SDS011;5350;42.698;23.148;2023-04-24T05:47:26;8.53;;;5.73;;
10605;SDS011;5350;42.698;23.148;2023-04-24T05:49:53;11.47;;;5.87;;
10605;SDS011;5350;42.698;23.148;2023-04-24T05:52:20;7.63;;;5.80;;
10605;SDS011;5350;42.698;23.148;2023-04-24T05:54:47;8.67;;;5.63;;
10605;SDS011;5350;42.698;23.148;2023-04-24T05:57:15;7.40;;;6.53;;
10605;SDS011;5350;42.698;23.148;2023-04-24T05:59:41;9.77;;;6.60;;
10605;SDS011;5350;42.698;23.148;2023-04-24T06:02:08;12.03;;;6.43;;
10605;SDS011;5350;42.698;23.148;2023-04-24T06:04:35;7.73;;;6.53;;
10605;SDS011;5350;42.698;23.148;2023-04-24T06:07:01;10.50;;;5.93;;
10605;SDS011;5350;42.698;23.148;2023-04-24T06:09:28;9.83;;;5.43;;
10605;SDS011;5350;42.698;23.148;2023-04-24T06:11:55;8.47;;;5.93;;
10605;SDS011;5350;42.698;23.148;2023-04-24T06:14:23;7.77;;;6.80;;
10605;SDS011;5350;42.698;23.148;2023-04-24T06:16:50;8.47;;;7.00;;
10605;SDS011;5350;42.698;23.148;2023-04-24T06:19:17;7.20;;;6.40;;
10605;SDS011;5350;42.698;23.148;2023-04-24T06:21:43;13.33;;;7.13;;
10605;SDS011;5350;42.698;23.148;2023-04-24T06:24:10;10.70;;;6.27;;
10605;SDS011;5350;42.698;23.148;2023-04-24T06:26:37;9.07;;;6.07;;
10605;SDS011;5350;42.698;23.148;2023-04-24T06:29:04;8.77;;;6.20;;
10605;SDS011;5350;42.698;23.148;2023-04-24T06:31:33;8.17;;;5.73;;
10605;SDS011;5350;42.698;23.148;2023-04-24T06:34:02;11.60;;;5.60;;
10605;SDS011;5350;42.698;23.148;2023-04-24T06:36:28;11.00;;;6.07;;
10605;SDS011;5350;42.698;23.148;2023-04-24T06:38:56;14.87;;;6.63;;
10605;SDS011;5350;42.698;23.148;2023-04-24T06:41:23;9.50;;;6.23;;
10605;SDS011;5350;42.698;23.148;2023-04-24T06:43:50;10.03;;;6.23;;
10605;SDS011;5350;42.698;23.148;2023-04-24T06:46:16;12.95;;;6.18;;
10605;SDS011;5350;42.698;23.148;2023-04-24T06:48:44;7.45;;;5.63;;
10605;SDS011;5350;42.698;23.148;2023-04-24T06:51:11;7.80;;;5.53;;
10605;SDS011;5350;42.698;23.148;2023-04-24T06:53:38;7.82;;;6.10;;
10605;SDS011;5350;42.698;23.148;2023-04-24T06:56:04;7.65;;;5.00;;
10605;SDS011;5350;42.698;23.148;2023-04-24T06:58:31;13.05;;;6.57;;
10605;SDS011;5350;42.698;23.148;2023-04-24T07:00:58;12.35;;;5.90;;
10605;SDS011;5350;42.698;23.148;2023-04-24T07:03:25;7.93;;;5.78;;
10605;SDS011;5350;42.698;23.148;2023-04-24T07:05:53;8.73;;;6.05;;
10605;SDS011;5350;42.698;23.148;2023-04-24T07:08:21;10.10;;;6.63;;
10605;SDS011;5350;42.698;23.148;2023-04-24T07:10:48;7.78;;;6.25;;
10605;SDS011;5350;42.698;23.148;2023-04-24T07:13:15;6.95;;;5.57;;
10605;SDS011;5350;42.698;23.148;2023-04-24T07:15:42;6.82;;;4.90;;
10605;SDS011;5350;42.698;23.148;2023-04-24T07:18:09;8.13;;;4.70;;
10605;SDS011;5350;42.698;23.148;2023-04-24T07:20:36;6.57;;;4.30;;
10605;SDS011;5350;42.698;23.148;2023-04-24T07:23:04;6.30;;;4.97;;
10605;SDS011;5350;42.698;23.148;2023-04-24T07:25:31;5.72;;;5.22;;
10605;SDS011;5350;42.698;23.148;2023-04-24T07:27:57;7.80;;;5.10;;
10605;SDS011;5350;42.698;23.148;2023-04-24T07:30:24;5.10;;;4.60;;
10605;SDS011;5350;42.698;23.148;2023-04-24T07:32:53;8.18;;;3.92;;
10605;SDS011;5350;42.698;23.148;2023-04-24T07:35:20;6.35;;;3.90;;
10605;SDS011;5350;42.698;23.148;2023-04-24T07:37:47;4.18;;;3.78;;
10605;SDS011;5350;42.698;23.148;2023-04-24T07:40:15;6.93;;;3.75;;
10605;SDS011;5350;42.698;23.148;2023-04-24T07:42:42;10.57;;;4.10;;
10605;SDS011;5350;42.698;23.148;2023-04-24T07:45:09;8.43;;;4.60;;
10605;SDS011;5350;42.698;23.148;2023-04-24T07:47:36;4.65;;;3.50;;
10605;SDS011;5350;42.698;23.148;2023-04-24T07:50:05;9.48;;;4.25;;
10605;SDS011;5350;42.698;23.148;2023-04-24T07:52:32;4.72;;;3.38;;
10605;SDS011;5350;42.698;23.148;2023-04-24T07:54:59;5.70;;;4.35;;
10605;SDS011;5350;42.698;23.148;2023-04-24T07:57:28;5.38;;;4.05;;
10605;SDS011;5350;42.698;23.148;2023-04-24T07:59:55;4.10;;;3.63;;
10605;SDS011;5350;42.698;23.148;2023-04-24T08:02:22;3.90;;;3.58;;
10605;SDS011;5350;42.698;23.148;2023-04-24T08:04:51;6.45;;;3.28;;
10605;SDS011;5350;42.698;23.148;2023-04-24T08:07:18;7.68;;;3.67;;
10605;SDS011;5350;42.698;23.148;2023-04-24T08:09:44;5.00;;;3.67;;
10605;SDS011;5350;42.698;23.148;2023-04-24T08:12:11;6.30;;;3.58;;
10605;SDS011;5350;42.698;23.148;2023-04-24T08:14:39;4.40;;;3.50;;
10605;SDS011;5350;42.698;23.148;2023-04-24T08:17:06;6.60;;;3.72;;
10605;SDS011;5350;42.698;23.148;2023-04-24T08:19:33;5.93;;;3.88;;
10605;SDS011;5350;42.698;23.148;2023-04-24T08:22:00;6.03;;;3.13;;
10605;SDS011;5350;42.698;23.148;2023-04-24T08:24:27;5.95;;;3.83;;
10605;SDS011;5350;42.698;23.148;2023-04-24T08:26:54;7.22;;;3.45;;
10605;SDS011;5350;42.698;23.148;2023-04-24T08:29:23;6.18;;;3.28;;
10605;SDS011;5350;42.698;23.148;2023-04-24T08:31:51;6.28;;;3.63;;
10605;SDS011;5350;42.698;23.148;2023-04-24T08:34:19;8.25;;;3.42;;
10605;SDS011;5350;42.698;23.148;2023-04-24T08:36:46;5.43;;;3.63;;
10605;SDS011;5350;42.698;23.148;2023-04-24T08:39:12;5.72;;;3.60;;
10605;SDS011;5350;42.698;23.148;2023-04-24T08:41:39;4.90;;;4.28;;
10605;SDS011;5350;42.698;23.148;2023-04-24T08:44:08;4.22;;;2.90;;
10605;SDS011;5350;42.698;23.148;2023-04-24T08:46:35;7.35;;;4.80;;
10605;SDS011;5350;42.698;23.148;2023-04-24T08:49:04;7.63;;;4.07;;
10605;SDS011;5350;42.698;23.148;2023-04-24T08:51:31;8.20;;;3.80;;
10605;SDS011;5350;42.698;23.148;2023-04-24T08:53:59;6.93;;;3.60;;
10605;SDS011;5350;42.698;23.148;2023-04-24T08:56:27;5.90;;;3.58;;
10605;SDS011;5350;42.698;23.148;2023-04-24T08:58:56;5.97;;;3.20;;
10605;SDS011;5350;42.698;23.148;2023-04-24T09:01:23;6.13;;;3.22;;
10605;SDS011;5350;42.698;23.148;2023-04-24T09:03:51;5.13;;;3.00;;
10605;SDS011;5350;42.698;23.148;2023-04-24T09:06:22;5.82;;;2.85;;
10605;SDS011;5350;42.698;23.148;2023-04-24T09:08:51;5.20;;;2.95;;
10605;SDS011;5350;42.698;23.148;2023-04-24T09:11:20;6.07;;;3.33;;
10605;SDS011;5350;42.698;23.148;2023-04-24T09:13:49;6.45;;;3.00;;
10605;SDS011;5350;42.698;23.148;2023-04-24T09:16:17;2.80;;;2.45;;
10605;SDS011;5350;42.698;23.148;2023-04-24T09:18:45;5.82;;;2.75;;
10605;SDS011;5350;42.698;23.148;2023-04-24T09:21:12;5.93;;;3.58;;
10605;SDS011;5350;42.698;23.148;2023-04-24T09:23:41;5.22;;;2.92;;
10605;SDS011;5350;42.698;23.148;2023-04-24T09:26:08;7.35;;;2.88;;
10605;SDS011;5350;42.698;23.148;2023-04-24T09:28:36;3.75;;;2.83;;
10605;SDS011;5350;42.698;23.148;2023-04-24T09:31:04;6.15;;;3.13;;
10605;SDS011;5350;42.698;23.148;2023-04-24T09:33:32;3.78;;;3.13;;
10605;SDS011;5350;42.698;23.148;2023-04-24T09:35:59;4.03;;;2.72;;
10605;SDS011;5350;42.698;23.148;2023-04-24T09:38:32;3.70;;;2.40;;
10605;SDS011;5350;42.698;23.148;2023-04-24T09:41:02;3.65;;;2.50;;
10605;SDS011;5350;42.698;23.148;2023-04-24T09:43:30;6.05;;;2.60;;
10605;SDS011;5350;42.698;23.148;2023-04-24T09:45:58;4.97;;;2.70;;
10605;SDS011;5350;42.698;23.148;2023-04-24T09:48:30;6.38;;;3.30;;
10605;SDS011;5350;42.698;23.148;2023-04-24T09:50:58;4.13;;;2.90;;
10605;SDS011;5350;42.698;23.148;2023-04-24T09:53:26;4.90;;;3.05;;
10605;SDS011;5350;42.698;23.148;2023-04-24T09:55:53;5.50;;;3.13;;
10605;SDS011;5350;42.698;23.148;2023-04-24T09:58:25;4.43;;;2.95;;
10605;SDS011;5350;42.698;23.148;2023-04-24T10:00:55;3.65;;;2.95;;
10605;SDS011;5350;42.698;23.148;2023-04-24T10:03:23;4.38;;;2.90;;
10605;SDS011;5350;42.698;23.148;2023-04-24T10:05:52;5.10;;;2.10;;
10605;SDS011;5350;42.698;23.148;2023-04-24T10:08:20;2.22;;;2.00;;
10605;SDS011;5350;42.698;23.148;2023-04-24T10:10:47;2.83;;;2.08;;
10605;SDS011;5350;42.698;23.148;2023-04-24T10:13:14;5.40;;;3.25;;
10605;SDS011;5350;42.698;23.148;2023-04-24T10:15:42;2.55;;;2.15;;
10605;SDS011;5350;42.698;23.148;2023-04-24T10:18:10;2.97;;;2.42;;
10605;SDS011;5350;42.698;23.148;2023-04-24T10:20:38;2.58;;;2.38;;
10605;SDS011;5350;42.698;23.148;2023-04-24T10:23:06;4.40;;;2.67;;
10605;SDS011;5350;42.698;23.148;2023-04-24T10:25:33;6.93;;;2.50;;
10605;SDS011;5350;42.698;23.148;2023-04-24T10:28:02;3.38;;;2.33;;
10605;SDS011;5350;42.698;23.148;2023-04-24T10:30:30;3.55;;;2.00;;
10605;SDS011;5350;42.698;23.148;2023-04-24T10:33:01;2.60;;;2.40;;
10605;SDS011;5350;42.698;23.148;2023-04-24T10:35:30;3.78;;;2.20;;
10605;SDS011;5350;42.698;23.148;2023-04-24T10:37:59;6.88;;;2.40;;
10605;SDS011;5350;42.698;23.148;2023-04-24T10:40:32;7.55;;;2.60;;
10605;SDS011;5350;42.698;23.148;2023-04-24T10:43:01;2.28;;;2.15;;
10605;SDS011;5350;42.698;23.148;2023-04-24T10:45:31;2.85;;;2.20;;
10605;SDS011;5350;42.698;23.148;2023-04-24T10:47:58;3.30;;;2.30;;
10605;SDS011;5350;42.698;23.148;2023-04-24T10:50:28;1.90;;;1.80;;
10605;SDS011;5350;42.698;23.148;2023-04-24T10:53:05;6.15;;;2.38;;
10605;SDS011;5350;42.698;23.148;2023-04-24T10:55:39;3.83;;;2.60;;
10605;SDS011;5350;42.698;23.148;2023-04-24T10:58:08;5.78;;;2.55;;
10605;SDS011;5350;42.698;23.148;2023-04-24T11:00:36;3.03;;;2.47;;
10605;SDS011;5350;42.698;23.148;2023-04-24T11:03:04;3.72;;;2.47;;
10605;SDS011;5350;42.698;23.148;2023-04-24T11:08:30;2.60;;;2.40;;
10605;SDS011;5350;42.698;23.148;2023-04-24T11:10:59;3.47;;;3.03;;
10605;SDS011;5350;42.698;23.148;2023-04-24T11:16:31;2.60;;;2.40;;
10605;SDS011;5350;42.698;23.148;2023-04-24T11:19:00;2.80;;;2.60;;
10605;SDS011;5350;42.698;23.148;2023-04-24T11:21:32;2.00;;;1.90;;
10605;SDS011;5350;42.698;23.148;2023-04-24T11:26:51;3.10;;;2.80;;
10605;SDS011;5350;42.698;23.148;2023-04-24T11:29:18;3.00;;;2.60;;
10605;SDS011;5350;42.698;23.148;2023-04-24T11:31:46;3.08;;;2.50;;
10605;SDS011;5350;42.698;23.148;2023-04-24T11:34:15;3.30;;;2.67;;
10605;SDS011;5350;42.698;23.148;2023-04-24T11:36:44;3.45;;;2.88;;
10605;SDS011;5350;42.698;23.148;2023-04-24T11:39:12;4.53;;;3.90;;
10605;SDS011;5350;42.698;23.148;2023-04-24T11:41:39;2.97;;;2.72;;
10605;SDS011;5350;42.698;23.148;2023-04-24T11:44:06;6.47;;;5.15;;
10605;SDS011;5350;42.698;23.148;2023-04-24T11:46:35;3.08;;;2.88;;
10605;SDS011;5350;42.698;23.148;2023-04-24T11:49:03;5.38;;;3.20;;
10605;SDS011;5350;42.698;23.148;2023-04-24T11:51:30;5.35;;;3.05;;
10605;SDS011;5350;42.698;23.148;2023-04-24T11:53:58;3.25;;;2.90;;
10605;SDS011;5350;42.698;23.148;2023-04-24T11:56:25;10.50;;;2.92;;
10605;SDS011;5350;42.698;23.148;2023-04-24T11:58:52;4.47;;;2.85;;
10605;SDS011;5350;42.698;23.148;2023-04-24T12:01:20;3.58;;;2.63;;
10605;SDS011;5350;42.698;23.148;2023-04-24T12:03:47;3.20;;;2.90;;
10605;SDS011;5350;42.698;23.148;2023-04-24T12:06:16;2.90;;;2.60;;
10605;SDS011;5350;42.698;23.148;2023-04-24T12:08:45;4.25;;;2.72;;
10605;SDS011;5350;42.698;23.148;2023-04-24T12:11:14;2.67;;;2.47;;
10605;SDS011;5350;42.698;23.148;2023-04-24T12:13:42;3.38;;;2.22;;
10605;SDS011;5350;42.698;23.148;2023-04-24T12:16:09;2.38;;;2.17;;
10605;SDS011;5350;42.698;23.148;2023-04-24T12:18:40;2.65;;;2.40;;
10605;SDS011;5350;42.698;23.148;2023-04-24T12:21:14;3.65;;;2.42;;
10605;SDS011;5350;42.698;23.148;2023-04-24T12:23:42;3.58;;;3.28;;
10605;SDS011;5350;42.698;23.148;2023-04-24T12:26:09;2.70;;;2.50;;
10605;SDS011;5350;42.698;23.148;2023-04-24T12:28:37;2.53;;;2.40;;
10605;SDS011;5350;42.698;23.148;2023-04-24T12:31:05;2.97;;;2.70;;
10605;SDS011;5350;42.698;23.148;2023-04-24T12:33:33;2.65;;;2.45;;
10605;SDS011;5350;42.698;23.148;2023-04-24T12:36:00;4.10;;;3.40;;
10605;SDS011;5350;42.698;23.148;2023-04-24T12:38:28;2.63;;;2.38;;
10605;SDS011;5350;42.698;23.148;2023-04-24T12:41:02;3.03;;;2.72;;
10605;SDS011;5350;42.698;23.148;2023-04-24T12:43:31;2.70;;;2.50;;
10605;SDS011;5350;42.698;23.148;2023-04-24T12:45:59;4.00;;;3.53;;
10605;SDS011;5350;42.698;23.148;2023-04-24T12:48:26;2.53;;;2.17;;
10605;SDS011;5350;42.698;23.148;2023-04-24T12:50:53;2.80;;;2.60;;
10605;SDS011;5350;42.698;23.148;2023-04-24T12:53:20;4.68;;;3.22;;
10605;SDS011;5350;42.698;23.148;2023-04-24T12:55:47;4.72;;;2.60;;
10605;SDS011;5350;42.698;23.148;2023-04-24T12:58:18;2.72;;;2.53;;
10605;SDS011;5350;42.698;23.148;2023-04-24T13:00:45;3.10;;;2.88;;
10605;SDS011;5350;42.698;23.148;2023-04-24T13:03:13;4.13;;;3.00;;
10605;SDS011;5350;42.698;23.148;2023-04-24T13:05:41;2.90;;;2.70;;
10605;SDS011;5350;42.698;23.148;2023-04-24T13:08:09;3.20;;;2.55;;
10605;SDS011;5350;42.698;23.148;2023-04-24T13:10:36;3.92;;;2.60;;
10605;SDS011;5350;42.698;23.148;2023-04-24T13:13:02;3.42;;;2.63;;
10605;SDS011;5350;42.698;23.148;2023-04-24T13:15:29;2.75;;;2.55;;
10605;SDS011;5350;42.698;23.148;2023-04-24T13:17:56;3.47;;;2.53;;
10605;SDS011;5350;42.698;23.148;2023-04-24T13:20:24;3.05;;;2.75;;
10605;SDS011;5350;42.698;23.148;2023-04-24T13:22:51;3.75;;;3.10;;
10605;SDS011;5350;42.698;23.148;2023-04-24T13:25:18;4.53;;;2.80;;
10605;SDS011;5350;42.698;23.148;2023-04-24T13:27:45;5.30;;;2.75;;
10605;SDS011;5350;42.698;23.148;2023-04-24T13:30:12;2.95;;;2.75;;
10605;SDS011;5350;42.698;23.148;2023-04-24T13:32:39;5.70;;;2.83;;
10605;SDS011;5350;42.698;23.148;2023-04-24T13:35:06;4.03;;;2.67;;
10605;SDS011;5350;42.698;23.148;2023-04-24T13:37:35;2.63;;;2.42;;
10605;SDS011;5350;42.698;23.148;2023-04-24T13:40:01;2.17;;;2.08;;
10605;SDS011;5350;42.698;23.148;2023-04-24T13:42:31;4.65;;;2.28;;
10605;SDS011;5350;42.698;23.148;2023-04-24T13:44:57;3.40;;;2.53;;
10605;SDS011;5350;42.698;23.148;2023-04-24T13:47:24;2.30;;;2.03;;
10605;SDS011;5350;42.698;23.148;2023-04-24T13:49:51;4.38;;;2.20;;
10605;SDS011;5350;42.698;23.148;2023-04-24T13:52:19;2.83;;;2.30;;
10605;SDS011;5350;42.698;23.148;2023-04-24T13:54:47;3.42;;;2.15;;
10605;SDS011;5350;42.698;23.148;2023-04-24T13:57:14;3.40;;;2.25;;
10605;SDS011;5350;42.698;23.148;2023-04-24T13:59:41;3.10;;;2.55;;
10605;SDS011;5350;42.698;23.148;2023-04-24T14:02:08;4.25;;;2.72;;
10605;SDS011;5350;42.698;23.148;2023-04-24T14:04:35;3.33;;;2.60;;
10605;SDS011;5350;42.698;23.148;2023-04-24T14:07:02;3.90;;;3.10;;
10605;SDS011;5350;42.698;23.148;2023-04-24T14:09:29;3.10;;;2.90;;
10605;SDS011;5350;42.698;23.148;2023-04-24T14:11:57;3.60;;;3.30;;
10605;SDS011;5350;42.698;23.148;2023-04-24T14:14:24;3.38;;;2.80;;
10605;SDS011;5350;42.698;23.148;2023-04-24T14:16:50;3.55;;;2.65;;
10605;SDS011;5350;42.698;23.148;2023-04-24T14:19:17;5.13;;;3.78;;
10605;SDS011;5350;42.698;23.148;2023-04-24T14:21:44;6.07;;;2.53;;
10605;SDS011;5350;42.698;23.148;2023-04-24T14:24:11;3.15;;;2.20;;
10605;SDS011;5350;42.698;23.148;2023-04-24T14:26:37;2.83;;;2.30;;
10605;SDS011;5350;42.698;23.148;2023-04-24T14:29:05;3.33;;;2.85;;
10605;SDS011;5350;42.698;23.148;2023-04-24T14:31:32;3.58;;;3.28;;
10605;SDS011;5350;42.698;23.148;2023-04-24T14:33:59;4.05;;;3.17;;
10605;SDS011;5350;42.698;23.148;2023-04-24T14:36:26;5.50;;;3.25;;
10605;SDS011;5350;42.698;23.148;2023-04-24T14:38:52;4.05;;;2.92;;
10605;SDS011;5350;42.698;23.148;2023-04-24T14:41:19;5.13;;;3.67;;
10605;SDS011;5350;42.698;23.148;2023-04-24T14:43:46;3.67;;;3.20;;
10605;SDS011;5350;42.698;23.148;2023-04-24T14:46:14;6.07;;;3.15;;
10605;SDS011;5350;42.698;23.148;2023-04-24T14:48:41;4.75;;;2.67;;
10605;SDS011;5350;42.698;23.148;2023-04-24T14:51:07;5.45;;;2.25;;
10605;SDS011;5350;42.698;23.148;2023-04-24T14:53:34;2.75;;;2.38;;
10605;SDS011;5350;42.698;23.148;2023-04-24T14:56:01;4.10;;;2.30;;